UAE338 RPVM-RPLC
Flight info
| Callsign | UAE338 |
|---|---|
| Flight time | 0h 58m |
| Altitude | 34000 |
| Route | MULOP4P MULOP W11 MIA W16 OLIVA OLIVA3P |
| Aircraft | B77W/H-SDE1E2E3FGHIJ2J3J4J5M1RWXY/LB1D1 |
Departure
| Time | 2026-05-08 08:46 |
|---|---|
| Airport | Mactan Cebu International Airport (RPVM) |
Arrival
| Time | 2026-05-08 09:44 |
|---|---|
| Airport | Clark International Airport / Clark Air Base (RPLC) |
| Time | Latitude | Longitude | Altitude | Speed | Heading |
|---|---|---|---|---|---|
| 2026-05-08 08:10 | 10.31284 | 123.97773 | 43 ft | 0 kts | 266° |
| 2026-05-08 08:29 | 10.31286 | 123.97799 | 43 ft | 4 kts | 259° |
| 2026-05-08 08:30 | 10.31293 | 123.97825 | 43 ft | 4 kts | 252° |
| 2026-05-08 08:30 | 10.31302 | 123.97851 | 40 ft | 4 kts | 243° |
| 2026-05-08 08:30 | 10.31336 | 123.97891 | 40 ft | 4 kts | 199° |
| 2026-05-08 08:31 | 10.31348 | 123.97894 | 39 ft | 0 kts | 176° |
| 2026-05-08 08:31 | 10.31323 | 123.97898 | 40 ft | 4 kts | 166° |
| 2026-05-08 08:31 | 10.31304 | 123.97913 | 42 ft | 2 kts | 131° |
| 2026-05-08 08:31 | 10.31303 | 123.97914 | 42 ft | 0 kts | 131° |
| 2026-05-08 08:39 | 10.31302 | 123.97915 | 44 ft | 1 kts | 131° |
| 2026-05-08 08:39 | 10.31268 | 123.97950 | 44 ft | 9 kts | 134° |
| 2026-05-08 08:39 | 10.31217 | 123.97979 | 44 ft | 9 kts | 184° |
| 2026-05-08 08:40 | 10.31159 | 123.97942 | 44 ft | 13 kts | 222° |
| 2026-05-08 08:40 | 10.31077 | 123.97860 | 43 ft | 20 kts | 225° |
| 2026-05-08 08:40 | 10.30970 | 123.97753 | 43 ft | 22 kts | 224° |
| 2026-05-08 08:40 | 10.30845 | 123.97629 | 43 ft | 29 kts | 224° |
| 2026-05-08 08:41 | 10.30703 | 123.97486 | 44 ft | 29 kts | 224° |
| 2026-05-08 08:41 | 10.30560 | 123.97344 | 44 ft | 29 kts | 224° |
| 2026-05-08 08:41 | 10.30420 | 123.97202 | 44 ft | 29 kts | 225° |
| 2026-05-08 08:41 | 10.30277 | 123.97058 | 43 ft | 29 kts | 225° |
| 2026-05-08 08:42 | 10.30146 | 123.96926 | 43 ft | 24 kts | 224° |
| 2026-05-08 08:42 | 10.30046 | 123.96826 | 43 ft | 15 kts | 224° |
| 2026-05-08 08:42 | 10.30005 | 123.96784 | 43 ft | 3 kts | 225° |
| 2026-05-08 08:42 | 10.29991 | 123.96770 | 43 ft | 2 kts | 225° |
| 2026-05-08 08:43 | 10.29984 | 123.96763 | 43 ft | 0 kts | 225° |
| 2026-05-08 08:43 | 10.29982 | 123.96761 | 43 ft | 3 kts | 225° |
| 2026-05-08 08:43 | 10.29942 | 123.96721 | 43 ft | 8 kts | 223° |
| 2026-05-08 08:44 | 10.29889 | 123.96710 | 43 ft | 9 kts | 157° |
| 2026-05-08 08:44 | 10.29838 | 123.96752 | 42 ft | 10 kts | 135° |
| 2026-05-08 08:44 | 10.29786 | 123.96805 | 41 ft | 9 kts | 135° |
| 2026-05-08 08:44 | 10.29737 | 123.96855 | 39 ft | 9 kts | 134° |
| 2026-05-08 08:45 | 10.29722 | 123.96897 | 38 ft | 6 kts | 75° |
| 2026-05-08 08:45 | 10.29744 | 123.96927 | 38 ft | 0 kts | 48° |
| 2026-05-08 08:45 | 10.29745 | 123.96929 | 38 ft | 1 kts | 48° |
| 2026-05-08 08:45 | 10.29846 | 123.97032 | 37 ft | 46 kts | 45° |
| 2026-05-08 08:46 | 10.30291 | 123.97479 | 41 ft | 131 kts | 45° |
| 2026-05-08 08:46 | 10.31079 | 123.98290 | 261 ft | 175 kts | 45° |
| 2026-05-08 08:46 | 10.31890 | 123.99151 | 1259 ft | 169 kts | 49° |
| 2026-05-08 08:46 | 10.32699 | 124.00033 | 2064 ft | 178 kts | 49° |
| 2026-05-08 08:47 | 10.33625 | 124.01015 | 2463 ft | 209 kts | 48° |
| 2026-05-08 08:47 | 10.34770 | 124.02122 | 2675 ft | 244 kts | 34° |
| 2026-05-08 08:47 | 10.36466 | 124.02526 | 3325 ft | 264 kts | 355° |
| 2026-05-08 08:47 | 10.38196 | 124.01907 | 4319 ft | 272 kts | 333° |
| 2026-05-08 08:48 | 10.39774 | 124.00822 | 5397 ft | 276 kts | 325° |
| 2026-05-08 08:48 | 10.41293 | 123.99589 | 6404 ft | 281 kts | 323° |
| 2026-05-08 08:48 | 10.42826 | 123.98301 | 7277 ft | 290 kts | 323° |
| 2026-05-08 08:48 | 10.44420 | 123.96952 | 7718 ft | 316 kts | 322° |
| 2026-05-08 08:49 | 10.46203 | 123.95449 | 8009 ft | 345 kts | 322° |
| 2026-05-08 08:49 | 10.48093 | 123.93862 | 8746 ft | 358 kts | 322° |
| 2026-05-08 08:49 | 10.50040 | 123.92237 | 9651 ft | 364 kts | 322° |
| 2026-05-08 08:49 | 10.52016 | 123.90598 | 10535 ft | 368 kts | 322° |
| 2026-05-08 08:50 | 10.54019 | 123.88941 | 11500 ft | 373 kts | 322° |
| 2026-05-08 08:50 | 10.56019 | 123.87283 | 12550 ft | 377 kts | 322° |
| 2026-05-08 08:50 | 10.58065 | 123.85591 | 13645 ft | 381 kts | 322° |
| 2026-05-08 08:50 | 10.60164 | 123.83862 | 14531 ft | 388 kts | 322° |
| 2026-05-08 08:51 | 10.61559 | 123.82714 | 15104 ft | 392 kts | 322° |
| 2026-05-08 08:51 | 10.64408 | 123.80373 | 16267 ft | 400 kts | 323° |
| 2026-05-08 08:51 | 10.65858 | 123.79181 | 16832 ft | 405 kts | 323° |
| 2026-05-08 08:51 | 10.68075 | 123.77357 | 17647 ft | 412 kts | 323° |
| 2026-05-08 08:52 | 10.71074 | 123.74890 | 18650 ft | 421 kts | 323° |
| 2026-05-08 08:52 | 10.72617 | 123.73620 | 19173 ft | 424 kts | 323° |
| 2026-05-08 08:52 | 10.75670 | 123.71107 | 20269 ft | 427 kts | 323° |
| 2026-05-08 08:52 | 10.77210 | 123.69839 | 20807 ft | 429 kts | 322° |
| 2026-05-08 08:53 | 10.79543 | 123.67917 | 21591 ft | 434 kts | 322° |
| 2026-05-08 08:53 | 10.81907 | 123.65969 | 22349 ft | 438 kts | 322° |
| 2026-05-08 08:53 | 10.84292 | 123.64004 | 23097 ft | 443 kts | 322° |
| 2026-05-08 08:53 | 10.86704 | 123.62016 | 23768 ft | 447 kts | 322° |
| 2026-05-08 08:54 | 10.89114 | 123.60030 | 24358 ft | 452 kts | 322° |
| 2026-05-08 08:54 | 10.91569 | 123.58006 | 24976 ft | 455 kts | 322° |
| 2026-05-08 08:54 | 10.94042 | 123.55965 | 25581 ft | 459 kts | 322° |
| 2026-05-08 08:54 | 10.96545 | 123.53901 | 26144 ft | 464 kts | 321° |
| 2026-05-08 08:55 | 10.99042 | 123.51841 | 26649 ft | 471 kts | 321° |
| 2026-05-08 08:55 | 11.01667 | 123.49787 | 27169 ft | 476 kts | 325° |
| 2026-05-08 08:55 | 11.04403 | 123.47856 | 27846 ft | 477 kts | 326° |
| 2026-05-08 08:55 | 11.07130 | 123.45968 | 28481 ft | 479 kts | 326° |
| 2026-05-08 08:56 | 11.09917 | 123.44049 | 29005 ft | 484 kts | 326° |
| 2026-05-08 08:56 | 11.12741 | 123.42102 | 29497 ft | 490 kts | 326° |
| 2026-05-08 08:56 | 11.15540 | 123.40163 | 29979 ft | 494 kts | 325° |
| 2026-05-08 08:56 | 11.18392 | 123.38181 | 30430 ft | 497 kts | 325° |
| 2026-05-08 08:57 | 11.21254 | 123.36185 | 30896 ft | 499 kts | 325° |
| 2026-05-08 08:57 | 11.24141 | 123.34169 | 31358 ft | 500 kts | 325° |
| 2026-05-08 08:57 | 11.27012 | 123.32161 | 31842 ft | 500 kts | 324° |
| 2026-05-08 08:57 | 11.29846 | 123.30179 | 32433 ft | 498 kts | 324° |
| 2026-05-08 08:58 | 11.32700 | 123.28183 | 33077 ft | 494 kts | 324° |
| 2026-05-08 08:58 | 11.35526 | 123.26206 | 33709 ft | 490 kts | 324° |
| 2026-05-08 08:58 | 11.38275 | 123.24284 | 33840 ft | 480 kts | 324° |
| 2026-05-08 08:58 | 11.41036 | 123.22352 | 33841 ft | 480 kts | 324° |
| 2026-05-08 08:59 | 11.46611 | 123.18447 | 33849 ft | 487 kts | 324° |
| 2026-05-08 08:59 | 11.52234 | 123.14508 | 33857 ft | 498 kts | 324° |
| 2026-05-08 09:00 | 11.57965 | 123.10492 | 33843 ft | 502 kts | 324° |
| 2026-05-08 09:00 | 11.63703 | 123.06471 | 33839 ft | 501 kts | 324° |
| 2026-05-08 09:01 | 11.69469 | 123.02428 | 33835 ft | 501 kts | 323° |
| 2026-05-08 09:01 | 11.75176 | 122.98423 | 33831 ft | 500 kts | 323° |
| 2026-05-08 09:02 | 11.80917 | 122.94392 | 33828 ft | 498 kts | 323° |
| 2026-05-08 09:02 | 11.86611 | 122.90392 | 33830 ft | 497 kts | 323° |
| 2026-05-08 09:03 | 11.92301 | 122.86394 | 33834 ft | 497 kts | 323° |
| 2026-05-08 09:03 | 11.98005 | 122.82382 | 33831 ft | 496 kts | 323° |
| 2026-05-08 09:04 | 12.03671 | 122.78396 | 33837 ft | 495 kts | 323° |
| 2026-05-08 09:04 | 12.09336 | 122.74408 | 33834 ft | 495 kts | 323° |
| 2026-05-08 09:05 | 12.15018 | 122.70406 | 33838 ft | 494 kts | 323° |
| 2026-05-08 09:05 | 12.20658 | 122.66432 | 33839 ft | 494 kts | 323° |
| 2026-05-08 09:06 | 12.26297 | 122.62455 | 33839 ft | 494 kts | 323° |
| 2026-05-08 09:06 | 12.31986 | 122.58441 | 33847 ft | 494 kts | 323° |
| 2026-05-08 09:07 | 12.37635 | 122.54454 | 33850 ft | 495 kts | 323° |
| 2026-05-08 09:07 | 12.43307 | 122.50447 | 33840 ft | 496 kts | 323° |
| 2026-05-08 09:08 | 12.48957 | 122.46452 | 33841 ft | 496 kts | 323° |
| 2026-05-08 09:08 | 12.54660 | 122.42416 | 33845 ft | 496 kts | 323° |
| 2026-05-08 09:09 | 12.60311 | 122.38415 | 33844 ft | 496 kts | 323° |
| 2026-05-08 09:09 | 12.66004 | 122.34382 | 33843 ft | 496 kts | 323° |
| 2026-05-08 09:10 | 12.71683 | 122.30356 | 33844 ft | 497 kts | 324° |
| 2026-05-08 09:10 | 12.77340 | 122.26344 | 33843 ft | 497 kts | 324° |
| 2026-05-08 09:11 | 12.83040 | 122.22300 | 33846 ft | 498 kts | 324° |
| 2026-05-08 09:11 | 12.88725 | 122.18264 | 33846 ft | 499 kts | 324° |
| 2026-05-08 09:12 | 12.94444 | 122.14201 | 33841 ft | 499 kts | 324° |
| 2026-05-08 09:12 | 13.00129 | 122.10160 | 33841 ft | 499 kts | 324° |
| 2026-05-08 09:13 | 13.05854 | 122.06088 | 33844 ft | 499 kts | 324° |
| 2026-05-08 09:13 | 13.11542 | 122.02040 | 33845 ft | 498 kts | 324° |
| 2026-05-08 09:14 | 13.17247 | 121.97978 | 33847 ft | 498 kts | 324° |
| 2026-05-08 09:14 | 13.22916 | 121.93939 | 33846 ft | 498 kts | 324° |
| 2026-05-08 09:15 | 13.28622 | 121.89872 | 33853 ft | 498 kts | 324° |
| 2026-05-08 09:15 | 13.34177 | 121.85909 | 33852 ft | 498 kts | 324° |
| 2026-05-08 09:16 | 13.39847 | 121.81862 | 33849 ft | 497 kts | 324° |
| 2026-05-08 09:16 | 13.45544 | 121.77794 | 33846 ft | 497 kts | 324° |
| 2026-05-08 09:17 | 13.51218 | 121.73739 | 33852 ft | 498 kts | 324° |
| 2026-05-08 09:17 | 13.56912 | 121.69667 | 33853 ft | 499 kts | 324° |
| 2026-05-08 09:18 | 13.62587 | 121.65607 | 33853 ft | 499 kts | 324° |
| 2026-05-08 09:18 | 13.68113 | 121.61651 | 33853 ft | 499 kts | 324° |
| 2026-05-08 09:19 | 13.73812 | 121.57570 | 33854 ft | 499 kts | 324° |
| 2026-05-08 09:19 | 13.79495 | 121.53496 | 33854 ft | 499 kts | 324° |
| 2026-05-08 09:20 | 13.85179 | 121.49418 | 33432 ft | 492 kts | 325° |
| 2026-05-08 09:20 | 13.87966 | 121.47417 | 32967 ft | 483 kts | 325° |
| 2026-05-08 09:20 | 13.90664 | 121.45480 | 32660 ft | 472 kts | 325° |
| 2026-05-08 09:21 | 13.93324 | 121.43569 | 32480 ft | 458 kts | 325° |
| 2026-05-08 09:21 | 13.95905 | 121.41715 | 32229 ft | 448 kts | 325° |
| 2026-05-08 09:22 | 14.11109 | 121.30778 | 28813 ft | 436 kts | 326° |
| 2026-05-08 09:23 | 14.13563 | 121.29008 | 28250 ft | 434 kts | 326° |
| 2026-05-08 09:23 | 14.16037 | 121.27221 | 27689 ft | 431 kts | 326° |
| 2026-05-08 09:23 | 14.18470 | 121.25463 | 27159 ft | 429 kts | 326° |
| 2026-05-08 09:23 | 14.20914 | 121.23697 | 26690 ft | 425 kts | 327° |
| 2026-05-08 09:24 | 14.23329 | 121.21952 | 26276 ft | 420 kts | 327° |
| 2026-05-08 09:24 | 14.25695 | 121.20249 | 25805 ft | 417 kts | 327° |
| 2026-05-08 09:24 | 14.28082 | 121.18537 | 25287 ft | 416 kts | 326° |
| 2026-05-08 09:24 | 14.30464 | 121.16828 | 24758 ft | 415 kts | 327° |
| 2026-05-08 09:25 | 14.32811 | 121.15142 | 24325 ft | 412 kts | 327° |
| 2026-05-08 09:25 | 14.35167 | 121.13450 | 23899 ft | 409 kts | 327° |
| 2026-05-08 09:25 | 14.37479 | 121.11788 | 23464 ft | 407 kts | 327° |
| 2026-05-08 09:25 | 14.39811 | 121.10111 | 22949 ft | 405 kts | 327° |
| 2026-05-08 09:26 | 14.42097 | 121.08467 | 22443 ft | 403 kts | 326° |
| 2026-05-08 09:26 | 14.44402 | 121.06809 | 21969 ft | 401 kts | 326° |
| 2026-05-08 09:26 | 14.46686 | 121.05164 | 21505 ft | 398 kts | 326° |
| 2026-05-08 09:26 | 14.48963 | 121.03524 | 21051 ft | 396 kts | 326° |
| 2026-05-08 09:27 | 14.51193 | 121.01921 | 20583 ft | 395 kts | 327° |
| 2026-05-08 09:27 | 14.53477 | 121.00348 | 20126 ft | 393 kts | 328° |
| 2026-05-08 09:27 | 14.55779 | 120.98806 | 19685 ft | 391 kts | 328° |
| 2026-05-08 09:27 | 14.58061 | 120.97285 | 19285 ft | 389 kts | 329° |
| 2026-05-08 09:28 | 14.60309 | 120.95781 | 18892 ft | 387 kts | 328° |
| 2026-05-08 09:28 | 14.62564 | 120.94265 | 18521 ft | 384 kts | 328° |
| 2026-05-08 09:28 | 14.64796 | 120.92761 | 18160 ft | 381 kts | 328° |
| 2026-05-08 09:28 | 14.66982 | 120.91284 | 17709 ft | 379 kts | 328° |
| 2026-05-08 09:29 | 14.69193 | 120.89791 | 17284 ft | 377 kts | 328° |
| 2026-05-08 09:29 | 14.71383 | 120.88310 | 16870 ft | 374 kts | 328° |
| 2026-05-08 09:29 | 14.73563 | 120.86826 | 16463 ft | 372 kts | 328° |
| 2026-05-08 09:29 | 14.75689 | 120.85370 | 16083 ft | 370 kts | 328° |
| 2026-05-08 09:30 | 14.77835 | 120.83899 | 15678 ft | 368 kts | 328° |
| 2026-05-08 09:30 | 14.79973 | 120.82433 | 15288 ft | 366 kts | 328° |
| 2026-05-08 09:30 | 14.82092 | 120.80981 | 14913 ft | 363 kts | 328° |
| 2026-05-08 09:30 | 14.84170 | 120.79557 | 14555 ft | 361 kts | 328° |
| 2026-05-08 09:31 | 14.86274 | 120.78115 | 14174 ft | 359 kts | 328° |
| 2026-05-08 09:31 | 14.88349 | 120.76692 | 13809 ft | 352 kts | 328° |
| 2026-05-08 09:31 | 14.90352 | 120.75319 | 13096 ft | 347 kts | 328° |
| 2026-05-08 09:31 | 14.92365 | 120.73940 | 12269 ft | 347 kts | 328° |
| 2026-05-08 09:32 | 14.94401 | 120.72591 | 11668 ft | 339 kts | 334° |
| 2026-05-08 09:32 | 14.96573 | 120.71882 | 11130 ft | 318 kts | 355° |
| 2026-05-08 09:32 | 14.98697 | 120.71665 | 10766 ft | 302 kts | 355° |
| 2026-05-08 09:32 | 15.00766 | 120.71417 | 10416 ft | 298 kts | 355° |
| 2026-05-08 09:33 | 15.02817 | 120.71154 | 10190 ft | 293 kts | 354° |
| 2026-05-08 09:33 | 15.04819 | 120.70891 | 10064 ft | 284 kts | 354° |
| 2026-05-08 09:33 | 15.06778 | 120.70633 | 9793 ft | 282 kts | 354° |
| 2026-05-08 09:33 | 15.08703 | 120.70378 | 9458 ft | 281 kts | 355° |
| 2026-05-08 09:34 | 15.10648 | 120.70117 | 9131 ft | 281 kts | 354° |
| 2026-05-08 09:34 | 15.12580 | 120.69856 | 8805 ft | 279 kts | 354° |
| 2026-05-08 09:34 | 15.14511 | 120.69605 | 8472 ft | 278 kts | 356° |
| 2026-05-08 09:34 | 15.16438 | 120.69437 | 8150 ft | 277 kts | 358° |
| 2026-05-08 09:35 | 15.18334 | 120.69292 | 7848 ft | 276 kts | 357° |
| 2026-05-08 09:35 | 15.20253 | 120.69139 | 7530 ft | 275 kts | 357° |
| 2026-05-08 09:35 | 15.22164 | 120.68982 | 7215 ft | 274 kts | 357° |
| 2026-05-08 09:35 | 15.24049 | 120.68958 | 6881 ft | 267 kts | 12° |
| 2026-05-08 09:36 | 15.25781 | 120.69572 | 6595 ft | 261 kts | 23° |
| 2026-05-08 09:36 | 15.27449 | 120.70271 | 6312 ft | 263 kts | 22° |
| 2026-05-08 09:36 | 15.29166 | 120.70962 | 5983 ft | 265 kts | 22° |
| 2026-05-08 09:36 | 15.30892 | 120.71651 | 5658 ft | 266 kts | 22° |
| 2026-05-08 09:37 | 15.32619 | 120.72338 | 5351 ft | 266 kts | 22° |
| 2026-05-08 09:37 | 15.34346 | 120.73025 | 5037 ft | 266 kts | 22° |
| 2026-05-08 09:37 | 15.36076 | 120.73709 | 4728 ft | 265 kts | 22° |
| 2026-05-08 09:37 | 15.37811 | 120.74158 | 4529 ft | 256 kts | 1° |
| 2026-05-08 09:38 | 15.39495 | 120.73716 | 4402 ft | 247 kts | 330° |
| 2026-05-08 09:38 | 15.40664 | 120.72519 | 4291 ft | 237 kts | 298° |
| 2026-05-08 09:38 | 15.41054 | 120.70919 | 4106 ft | 227 kts | 264° |
| 2026-05-08 09:38 | 15.40590 | 120.69415 | 3877 ft | 218 kts | 237° |
| 2026-05-08 09:39 | 15.39766 | 120.68108 | 3600 ft | 217 kts | 232° |
| 2026-05-08 09:39 | 15.38907 | 120.66821 | 3320 ft | 216 kts | 232° |
| 2026-05-08 09:39 | 15.38067 | 120.65531 | 3063 ft | 215 kts | 232° |
| 2026-05-08 09:39 | 15.37222 | 120.64250 | 2744 ft | 214 kts | 225° |
| 2026-05-08 09:40 | 15.36070 | 120.63393 | 2627 ft | 200 kts | 200° |
| 2026-05-08 09:40 | 15.34772 | 120.62749 | 2619 ft | 211 kts | 200° |
| 2026-05-08 09:40 | 15.33430 | 120.62153 | 2648 ft | 207 kts | 196° |
| 2026-05-08 09:40 | 15.32076 | 120.61607 | 2619 ft | 210 kts | 196° |
| 2026-05-08 09:41 | 15.30776 | 120.61088 | 2573 ft | 193 kts | 196° |
| 2026-05-08 09:41 | 15.29560 | 120.60605 | 2284 ft | 181 kts | 197° |
| 2026-05-08 09:41 | 15.28428 | 120.60155 | 2062 ft | 167 kts | 197° |
| 2026-05-08 09:41 | 15.27412 | 120.59746 | 1879 ft | 146 kts | 195° |
| 2026-05-08 09:42 | 15.26456 | 120.59368 | 1707 ft | 148 kts | 195° |
| 2026-05-08 09:42 | 15.25490 | 120.58984 | 1512 ft | 149 kts | 194° |
| 2026-05-08 09:42 | 15.24549 | 120.58610 | 1315 ft | 145 kts | 195° |
| 2026-05-08 09:42 | 15.23588 | 120.58228 | 1149 ft | 151 kts | 197° |
| 2026-05-08 09:43 | 15.22624 | 120.57842 | 1002 ft | 142 kts | 197° |
| 2026-05-08 09:43 | 15.21695 | 120.57451 | 805 ft | 145 kts | 198° |
| 2026-05-08 09:43 | 15.20774 | 120.57095 | 582 ft | 138 kts | 197° |
| 2026-05-08 09:43 | 15.19871 | 120.56743 | 458 ft | 140 kts | 197° |
| 2026-05-08 09:44 | 15.19043 | 120.56419 | 433 ft | 105 kts | 200° |
| 2026-05-08 09:44 | 15.18532 | 120.56217 | 436 ft | 52 kts | 201° |
| 2026-05-08 09:44 | 15.18338 | 120.56140 | 438 ft | 22 kts | 201° |
| 2026-05-08 09:44 | 15.18199 | 120.56086 | 435 ft | 17 kts | 201° |
| 2026-05-08 09:45 | 15.18149 | 120.56044 | 429 ft | 8 kts | 251° |
| 2026-05-08 09:45 | 15.18152 | 120.55983 | 429 ft | 10 kts | 287° |
| 2026-05-08 09:45 | 15.18180 | 120.55912 | 431 ft | 12 kts | 291° |
| 2026-05-08 09:45 | 15.18210 | 120.55829 | 431 ft | 13 kts | 290° |
| 2026-05-08 09:46 | 15.18242 | 120.55745 | 433 ft | 10 kts | 291° |
| 2026-05-08 09:46 | 15.18279 | 120.55702 | 425 ft | 8 kts | 342° |
| 2026-05-08 09:46 | 15.18337 | 120.55715 | 435 ft | 9 kts | 20° |
| 2026-05-08 09:46 | 15.18399 | 120.55739 | 429 ft | 10 kts | 21° |
| 2026-05-08 09:47 | 15.18470 | 120.55768 | 427 ft | 11 kts | 21° |
| 2026-05-08 09:47 | 15.18546 | 120.55798 | 428 ft | 12 kts | 20° |
| 2026-05-08 09:47 | 15.18630 | 120.55831 | 427 ft | 14 kts | 21° |
| 2026-05-08 09:47 | 15.18734 | 120.55872 | 432 ft | 18 kts | 21° |
| 2026-05-08 09:48 | 15.18853 | 120.55919 | 436 ft | 18 kts | 20° |
| 2026-05-08 09:48 | 15.18966 | 120.55963 | 428 ft | 16 kts | 21° |
| 2026-05-08 09:48 | 15.19051 | 120.55997 | 428 ft | 10 kts | 21° |
| 2026-05-08 09:48 | 15.19100 | 120.56025 | 430 ft | 8 kts | 53° |
| 2026-05-08 09:49 | 15.19098 | 120.56078 | 427 ft | 7 kts | 111° |
| 2026-05-08 09:49 | 15.19093 | 120.56128 | 433 ft | 7 kts | 66° |
| 2026-05-08 09:49 | 15.19139 | 120.56156 | 436 ft | 9 kts | 20° |
| 2026-05-08 09:49 | 15.19200 | 120.56180 | 433 ft | 10 kts | 21° |
| 2026-05-08 09:50 | 15.19263 | 120.56205 | 431 ft | 10 kts | 21° |
| 2026-05-08 09:50 | 15.19331 | 120.56232 | 426 ft | 11 kts | 21° |
| 2026-05-08 09:50 | 15.19388 | 120.56255 | 435 ft | 7 kts | 18° |
| 2026-05-08 09:50 | 15.19429 | 120.56236 | 427 ft | 7 kts | 305° |
| 2026-05-08 09:51 | 15.19444 | 120.56206 | 430 ft | 2 kts | 300° |
| 2026-05-08 09:51 | 15.19463 | 120.56195 | 427 ft | 3 kts | 347° |
| 2026-05-08 09:51 | 15.19477 | 120.56197 | 427 ft | 3 kts | 10° |
| 2026-05-08 09:51 | 15.19500 | 120.56203 | 434 ft | 4 kts | 14° |
| 2026-05-08 09:52 | 15.19517 | 120.56209 | 435 ft | 2 kts | 22° |
| 2026-05-08 09:52 | 15.19527 | 120.56213 | 436 ft | 1 kts | 21° |
| 2026-05-08 09:52 | 15.19533 | 120.56215 | 437 ft | 0 kts | 21° |